• Join FlightAware (Why Join?)
  • Login
  • US Flag 
 
04:33PM EST


 

Airport Tracker/Info


-or-


 

Live Flight TrackerFlight Track Log ✈ KAP927 ✈ 29-Jun-2013 ✈ KALB - KOGS

Flight Track Log - Related Links

Times and Time Zones

All times are in EDT time to prevent confusion due to time zone crossing. See the KAP927 flight status page for this flight to view local times or setup timezone preferences in your user account.

Time Position Orientation Groundspeed Altitude Reporting Facility
EDT Latitude Longitude Course Direction KTS MPH feet Rate Location/Type
02:37PM 42.7108 -73.8331 219° Southwest 112 129 1,600  Level Boston Center
02:39PM 42.6956 -73.8781 245° Southwest 120 138 2,200 600 Climbing Boston Center
02:40PM 42.6889 -73.9172 257° West 123 142 2,900 540 Climbing Boston Center
02:41PM 42.7028 -73.9631 292° West 130 150 3,400 480 Climbing Boston Center
02:42PM 42.7211 -74.0028 302° West 133 153 3,900 480 Climbing Boston Center
02:43PM 42.7456 -74.0347 316° Northwest 141 162 4,400 420 Climbing Boston Center
02:43PM 42.7786 -74.0581 333° Northwest 145 167 4,800 420 Climbing Boston Center
02:45PM 42.8239 -74.0933 330° Northwest 149 171 5,400 480 Climbing Boston Center
02:46PM 42.8592 -74.1169 334° Northwest 147 169 6,000 480 Climbing Boston Center
02:47PM 42.8942 -74.1433 331° Northwest 143 165 6,400 420 Climbing Boston Center
02:48PM 42.9311 -74.1700 332° Northwest 146 168 6,900 420 Climbing Boston Center
02:49PM 42.9744 -74.1994 334° Northwest 148 170 7,400 360 Climbing Boston Center
02:50PM 43.0075 -74.2231 332° Northwest 154 177 7,700 360 Climbing Boston Center
02:51PM 43.0406 -74.2469 332° Northwest 154 177 8,100 180 Climbing Boston Center
02:52PM 43.0797 -74.2764 331° Northwest 160 184 8,100 -60 Level Boston Center
02:53PM 43.1311 -74.3122 333° Northwest 189 217 8,000 -60 Descending Boston Center
02:54PM 43.1786 -74.3450 333° Northwest 184 212 8,000  Level Boston Center
02:55PM 43.2178 -74.3747 331° Northwest 179 206 8,000  Level Boston Center
02:56PM 43.2672 -74.4075 334° Northwest 179 206 8,000  Level Boston Center
02:57PM 43.3061 -74.4344 333° Northwest 179 206 8,000  Level Boston Center
02:58PM 43.3472 -74.4700 328° Northwest 174 200 8,000  Level Boston Center
02:59PM 43.3864 -74.4972 333° Northwest 174 200 8,100  Climbing Boston Center
03:00PM 43.4275 -74.5272 332° Northwest 169 194 8,100 -60 Level Boston Center
03:01PM 43.4686 -74.5542 335° Northwest 164 189 8,000  Descending Boston Center
03:02PM 43.5078 -74.5842 331° Northwest 159 183 8,100  Climbing Boston Center
03:03PM 43.5447 -74.6114 332° Northwest 159 183 8,000 -60 Descending Boston Center
03:04PM 43.5858 -74.6386 334° Northwest 159 183 8,000  Level Boston Center
03:05PM 43.6250 -74.6686 331° Northwest 159 183 8,000  Level Boston Center
03:06PM 43.6639 -74.6989 331° Northwest 159 183 8,000  Level Boston Center
03:07PM 43.7050 -74.7264 334° Northwest 159 183 8,100  Climbing Boston Center
03:08PM 43.7442 -74.7536 333° Northwest 159 183 8,000  Descending Boston Center
03:09PM 43.7853 -74.7839 332° Northwest 159 183 8,100  Climbing Boston Center
03:10PM 43.8242 -74.8142 331° Northwest 159 183 8,100 -60 Level Boston Center
03:11PM 43.8700 -74.8189 356° North 154 177 8,000  Descending Boston Center
03:12PM 43.9178 -74.8181 North 160 184 8,100  Climbing Boston Center
03:13PM 43.9681 -74.8169 North 160 184 8,100 -60 Level Boston Center
03:14PM 44.0158 -74.8133 North 165 190 8,000 -60 Descending Boston Center
03:15PM 44.0722 -74.8125 North 165 190 8,000  Level Boston Center
03:16PM 44.1156 -74.8344 340° North 165 190 8,000  Level Boston Center
03:17PM 44.1500 -74.8764 319° Northwest 159 183 8,100  Climbing Boston Center
03:18PM 44.1825 -74.9183 317° Northwest 159 183 8,100 -120 Level Boston Center
03:19PM 44.2214 -74.9489 331° Northwest 159 183 7,900 -300 Descending Boston Center
03:20PM 44.2600 -74.9939 320° Northwest 164 189 7,500 -480 Descending Boston Center
03:21PM 44.3008 -75.0392 322° Northwest 177 204 6,900 -600 Descending Boston Center
03:22PM 44.3494 -75.0936 321° Northwest 177 204 6,300 -660 Descending Boston Center
03:23PM 44.3861 -75.1331 322° Northwest 177 204 5,600 -600 Descending Boston Center
03:24PM 44.4289 -75.1758 324° Northwest 182 209 5,100 -300 Descending Boston Center
03:25PM 44.4653 -75.2211 318° Northwest 176 203 5,000 -60 Descending Boston Center
03:26PM 44.5019 -75.2547 327° Northwest 171 197 5,000  Level Boston Center